createdAt,value
2022-08-05T00:00:26.687Z,21.85
2022-08-05T00:01:20.259Z,21.88
2022-08-05T00:01:55.570Z,21.86
2022-08-05T00:02:40.243Z,21.86
2022-08-05T00:03:16.128Z,21.87
2022-08-05T00:03:51.775Z,21.89
2022-08-05T00:04:24.008Z,21.91
2022-08-05T00:04:56.475Z,21.93
2022-08-05T00:06:05.647Z,21.95
2022-08-05T00:06:30.717Z,21.93
2022-08-05T00:07:21.825Z,21.92
2022-08-05T00:08:01.446Z,21.91
2022-08-05T00:08:35.398Z,21.95
2022-08-05T00:09:12.847Z,21.97
2022-08-05T00:09:45.524Z,21.97
2022-08-05T00:10:18.595Z,21.98
2022-08-05T00:10:53.309Z,21.98
2022-08-05T00:11:34.720Z,21.98
2022-08-05T00:12:13.008Z,21.96
2022-08-05T00:12:56.224Z,21.95
2022-08-05T00:13:38.147Z,21.91
2022-08-05T00:14:16.936Z,21.89
2022-08-05T00:14:51.715Z,21.87
2022-08-05T00:15:55.456Z,21.88
2022-08-05T00:16:20.249Z,21.83
2022-08-05T00:17:18.686Z,21.79
2022-08-05T00:17:52.442Z,21.78
2022-08-05T00:18:24.585Z,21.79
2022-08-05T00:18:59.352Z,21.80
2022-08-05T00:19:33.386Z,21.79
2022-08-05T00:20:20.424Z,21.75
2022-08-05T00:20:53.140Z,21.75
2022-08-05T00:21:25.283Z,21.76
2022-08-05T00:22:05.939Z,21.74
2022-08-05T00:22:38.582Z,21.74
2022-08-05T00:23:44.457Z,21.73
2022-08-05T00:24:16.099Z,21.68
2022-08-05T00:24:55.181Z,21.68
2022-08-05T00:25:27.509Z,21.67
2022-08-05T00:26:20.341Z,21.54
2022-08-05T00:26:53.247Z,21.56
2022-08-05T00:27:28.393Z,21.60
2022-08-05T00:28:11.134Z,21.58
2022-08-05T00:28:45.732Z,21.60
2022-08-05T00:29:25.420Z,21.60
2022-08-05T00:29:57.965Z,21.59
2022-08-05T00:30:32.669Z,21.58
2022-08-05T00:31:08.592Z,21.59
2022-08-05T00:32:10.278Z,21.57
2022-08-05T00:32:37.800Z,21.53
2022-08-05T00:33:15.645Z,21.55
2022-08-05T00:34:55.634Z,21.50
2022-08-05T00:35:06.833Z,21.48
2022-08-05T00:35:48.002Z,21.48
2022-08-05T00:37:10.520Z,21.46
2022-08-05T00:37:35.467Z,21.45
2022-08-05T00:38:28.890Z,21.45
2022-08-05T00:39:13.789Z,21.46
2022-08-05T00:39:57.914Z,21.46
2022-08-05T00:40:33.976Z,21.46
2022-08-05T00:41:11.767Z,21.48
2022-08-05T00:41:54.997Z,21.50
2022-08-05T00:42:34.454Z,21.49
2022-08-05T00:43:07.665Z,21.50
2022-08-05T00:43:49.520Z,21.52
2022-08-05T00:44:30.892Z,21.51
2022-08-05T00:45:08.446Z,21.52
2022-08-05T00:45:44.249Z,21.53
2022-08-05T00:46:16.392Z,21.55
2022-08-05T00:46:54.252Z,21.56
2022-08-05T00:47:56.381Z,21.54
2022-08-05T00:48:31.382Z,21.53
2022-08-05T00:49:06.848Z,21.54
2022-08-05T00:49:51.045Z,21.56
2022-08-05T00:50:25.422Z,21.55
2022-08-05T00:51:00.548Z,21.57
2022-08-05T00:51:50.559Z,21.54
2022-08-05T00:52:28.654Z,21.53
2022-08-05T00:53:03.808Z,21.53
2022-08-05T00:54:02.702Z,21.52
2022-08-05T00:54:37.846Z,21.50
2022-08-05T00:55:10.143Z,21.51
2022-08-05T00:55:44.175Z,21.52
2022-08-05T00:56:22.807Z,21.54
2022-08-05T00:56:55.212Z,21.53
2022-08-05T00:57:38.148Z,21.54
2022-08-05T00:58:22.308Z,21.51
2022-08-05T00:59:00.231Z,21.51
2022-08-05T00:59:44.577Z,21.55
2022-08-05T01:00:17.780Z,21.51
2022-08-05T01:00:52.461Z,21.51
2022-08-05T01:01:42.605Z,21.53
2022-08-05T01:02:19.923Z,21.47
2022-08-05T01:02:57.479Z,21.47
2022-08-05T01:03:34.586Z,21.49
2022-08-05T01:04:13.960Z,21.50
2022-08-05T01:04:50.365Z,21.47
2022-08-05T01:05:23.197Z,21.50
2022-08-05T01:05:55.530Z,21.50
2022-08-05T01:06:32.506Z,21.53
2022-08-05T01:07:05.544Z,21.53
2022-08-05T01:07:38.123Z,21.54
2022-08-05T01:08:43.255Z,21.51
2022-08-05T01:09:19.841Z,21.48
2022-08-05T01:09:55.700Z,21.51
2022-08-05T01:10:33.532Z,21.52
2022-08-05T01:11:13.522Z,21.52
2022-08-05T01:11:51.736Z,21.52
2022-08-05T01:12:25.440Z,21.52
2022-08-05T01:13:13.365Z,21.52
2022-08-05T01:14:04.487Z,21.49
2022-08-05T01:14:48.889Z,21.48
2022-08-05T01:15:36.517Z,21.48
2022-08-05T01:16:21.058Z,21.48
2022-08-05T01:17:05.269Z,21.47
2022-08-05T01:17:46.402Z,21.49
2022-08-05T01:18:31.966Z,21.47
2022-08-05T01:19:15.944Z,21.47
2022-08-05T01:20:01.594Z,21.46
2022-08-05T01:20:50.217Z,21.44
2022-08-05T01:21:41.970Z,21.42
2022-08-05T01:22:47.185Z,21.38
2022-08-05T01:23:35.603Z,21.35
2022-08-05T01:24:24.302Z,21.35
2022-08-05T01:25:40.407Z,21.31
2022-08-05T01:26:38.219Z,21.29
2022-08-05T01:27:25.799Z,21.31
2022-08-05T01:28:27.312Z,21.31
2022-08-05T01:29:05.369Z,21.34
2022-08-05T01:29:44.407Z,21.36
2022-08-05T01:30:20.176Z,21.37
2022-08-05T01:31:11.518Z,21.40
2022-08-05T01:31:51.059Z,21.41
2022-08-05T01:32:27.819Z,21.43
2022-08-05T01:33:02.718Z,21.43
2022-08-05T01:33:42.386Z,21.44
2022-08-05T01:34:26.997Z,21.44
2022-08-05T01:35:03.108Z,21.46
2022-08-05T01:35:50.864Z,21.44
2022-08-05T01:36:29.657Z,21.43
2022-08-05T01:37:10.957Z,21.44
2022-08-05T01:37:59.456Z,21.41
2022-08-05T01:38:34.897Z,21.42
2022-08-05T01:39:10.567Z,21.43
2022-08-05T01:39:47.730Z,21.45
2022-08-05T01:40:27.961Z,21.46
2022-08-05T01:41:05.156Z,21.44
2022-08-05T01:41:44.480Z,21.44
2022-08-05T01:42:22.215Z,21.43
2022-08-05T01:42:56.996Z,21.44
2022-08-05T01:43:34.099Z,21.45
2022-08-05T01:44:11.291Z,21.44
2022-08-05T01:44:45.666Z,21.44
2022-08-05T01:45:27.966Z,21.46
2022-08-05T01:46:16.532Z,21.44
2022-08-05T01:47:05.100Z,21.42
2022-08-05T01:47:43.458Z,21.45
2022-08-05T01:48:18.418Z,21.47
2022-08-05T01:48:52.012Z,21.48
2022-08-05T01:50:01.862Z,21.48
2022-08-05T01:50:28.734Z,21.44
2022-08-05T01:51:12.484Z,21.44
2022-08-05T01:51:51.015Z,21.44
2022-08-05T01:52:28.629Z,21.45
2022-08-05T01:53:05.069Z,21.44
2022-08-05T01:53:57.606Z,21.46
2022-08-05T01:54:46.062Z,21.43
2022-08-05T01:55:22.737Z,21.41
2022-08-05T01:56:04.507Z,21.43
2022-08-05T01:58:11.776Z,21.42
2022-08-05T01:58:12.869Z,21.37
2022-08-05T01:58:40.782Z,21.34
2022-08-05T01:59:26.447Z,21.34
2022-08-05T02:00:02.148Z,21.37
2022-08-05T02:00:39.830Z,21.37
2022-08-05T02:01:23.300Z,21.38
2022-08-05T02:02:00.258Z,21.38
2022-08-05T02:02:37.321Z,21.40
2022-08-05T02:03:31.516Z,21.38
2022-08-05T02:04:05.832Z,21.38
2022-08-05T02:04:40.778Z,21.40
2022-08-05T02:05:17.829Z,21.42
2022-08-05T02:05:57.917Z,21.41
2022-08-05T02:06:38.420Z,21.43
2022-08-05T02:07:21.848Z,21.43
2022-08-05T02:08:00.167Z,21.42
2022-08-05T02:08:40.506Z,21.41
2022-08-05T02:09:29.632Z,21.40
2022-08-05T02:10:03.466Z,21.44
2022-08-05T02:10:40.890Z,21.46
2022-08-05T02:11:23.848Z,21.46
2022-08-05T02:12:03.497Z,21.46
2022-08-05T02:12:43.326Z,21.45
2022-08-05T02:13:21.938Z,21.43
2022-08-05T02:14:03.340Z,21.44
2022-08-05T02:14:47.105Z,21.44
2022-08-05T02:15:25.857Z,21.45
2022-08-05T02:16:16.432Z,21.50
2022-08-05T02:16:54.809Z,21.46
2022-08-05T02:18:31.343Z,21.47
2022-08-05T02:18:35.177Z,21.41
2022-08-05T02:19:14.549Z,21.42
2022-08-05T02:19:51.753Z,21.43
2022-08-05T02:20:29.572Z,21.44
2022-08-05T02:21:15.169Z,21.44
2022-08-05T02:22:01.352Z,21.40
2022-08-05T02:22:39.339Z,21.38
2022-08-05T02:23:14.967Z,21.32
2022-08-05T02:23:53.037Z,21.34
2022-08-05T02:24:32.116Z,21.36
2022-08-05T02:25:12.490Z,21.35
2022-08-05T02:25:50.189Z,21.28
2022-08-05T02:26:26.616Z,21.30
2022-08-05T02:27:10.203Z,21.33
2022-08-05T02:27:58.364Z,21.34
2022-08-05T02:28:38.422Z,21.34
2022-08-05T02:29:58.182Z,21.36
2022-08-05T02:30:17.814Z,21.33
2022-08-05T02:30:59.487Z,21.39
2022-08-05T02:31:35.821Z,21.42
2022-08-05T02:32:19.672Z,21.44
2022-08-05T02:32:58.163Z,21.44
2022-08-05T02:33:36.100Z,21.48
2022-08-05T02:34:12.042Z,21.47
2022-08-05T02:34:45.673Z,21.48
2022-08-05T02:35:33.293Z,21.47
2022-08-05T02:36:15.580Z,21.46
2022-08-05T02:36:54.451Z,21.47
2022-08-05T02:37:28.266Z,21.47
2022-08-05T02:38:05.500Z,21.48
2022-08-05T02:38:53.460Z,21.47
2022-08-05T02:39:29.807Z,21.47
2022-08-05T02:40:03.401Z,21.48
2022-08-05T02:40:41.457Z,21.49
2022-08-05T02:41:17.262Z,21.48
2022-08-05T02:42:00.572Z,21.49
2022-08-05T02:42:37.883Z,21.49
2022-08-05T02:43:13.087Z,21.50
2022-08-05T02:44:02.429Z,21.51
2022-08-05T02:44:47.120Z,21.49
2022-08-05T02:45:19.594Z,21.42
2022-08-05T02:45:56.923Z,21.44
2022-08-05T02:46:36.349Z,21.47
2022-08-05T02:47:58.663Z,21.47
2022-08-05T02:48:29.171Z,21.48
2022-08-05T02:49:02.872Z,21.49
2022-08-05T02:49:40.381Z,21.52
2022-08-05T02:50:17.384Z,21.52
2022-08-05T02:50:51.938Z,21.52
2022-08-05T02:51:28.506Z,21.53
2022-08-05T02:52:30.095Z,21.48
2022-08-05T02:53:04.029Z,21.47
2022-08-05T02:53:39.721Z,21.50
2022-08-05T02:54:35.007Z,21.50
2022-08-05T02:55:10.832Z,21.46
2022-08-05T02:55:54.688Z,21.46
2022-08-05T02:56:36.042Z,21.44
2022-08-05T02:58:10.885Z,21.46
2022-08-05T02:58:11.605Z,21.41
2022-08-05T02:58:51.599Z,21.43
2022-08-05T02:59:27.726Z,21.43
2022-08-05T03:00:05.404Z,21.44
2022-08-05T03:00:39.231Z,21.42
2022-08-05T03:01:15.045Z,21.44
2022-08-05T03:01:58.199Z,21.43
2022-08-05T03:02:35.489Z,21.43
2022-08-05T03:03:10.261Z,21.44
2022-08-05T03:04:03.217Z,21.44
2022-08-05T03:04:39.443Z,21.42
2022-08-05T03:05:15.139Z,21.44
2022-08-05T03:06:54.659Z,21.42
2022-08-05T03:06:56.885Z,21.44
2022-08-05T03:08:00.506Z,21.42
2022-08-05T03:08:29.911Z,21.40
2022-08-05T03:09:02.735Z,21.41
2022-08-05T03:09:38.241Z,21.43
2022-08-05T03:10:13.823Z,21.44
2022-08-05T03:11:02.332Z,21.44
2022-08-05T03:11:54.487Z,21.42
2022-08-05T03:12:30.250Z,21.39
2022-08-05T03:13:51.499Z,21.42
2022-08-05T03:14:28.694Z,21.39
2022-08-05T03:15:06.844Z,21.40
2022-08-05T03:15:44.942Z,21.39
2022-08-05T03:16:17.244Z,21.41
2022-08-05T03:16:53.380Z,21.42
2022-08-05T03:17:28.393Z,21.42
2022-08-05T03:18:00.793Z,21.42
2022-08-05T03:18:33.334Z,21.44
2022-08-05T03:19:17.179Z,21.43
2022-08-05T03:20:00.935Z,21.38
2022-08-05T03:20:33.281Z,21.39
2022-08-05T03:21:09.079Z,21.42
2022-08-05T03:21:48.636Z,21.41
2022-08-05T03:22:32.523Z,21.42
2022-08-05T03:23:09.488Z,21.40
2022-08-05T03:23:45.653Z,21.42
2022-08-05T03:24:29.529Z,21.43
2022-08-05T03:25:34.054Z,21.40
2022-08-05T03:26:04.288Z,21.37
2022-08-05T03:26:53.059Z,21.36
2022-08-05T03:27:29.795Z,21.38
2022-08-05T03:28:14.504Z,21.36
2022-08-05T03:28:51.291Z,21.36
2022-08-05T03:29:24.008Z,21.38
2022-08-05T03:30:08.493Z,21.40
2022-08-05T03:30:44.856Z,21.39
2022-08-05T03:31:55.608Z,21.39
2022-08-05T03:32:15.694Z,21.36
2022-08-05T03:32:48.022Z,21.38
2022-08-05T03:33:20.939Z,21.41
2022-08-05T03:33:56.916Z,21.42
2022-08-05T03:34:29.312Z,21.42
2022-08-05T03:35:04.480Z,21.44
2022-08-05T03:35:41.840Z,21.43
2022-08-05T03:36:14.276Z,21.42
2022-08-05T03:36:49.022Z,21.43
2022-08-05T03:37:25.417Z,21.41
2022-08-05T03:37:58.440Z,21.41
2022-08-05T03:38:37.533Z,21.42
2022-08-05T03:39:19.913Z,21.40
2022-08-05T03:40:05.067Z,21.36
2022-08-05T03:40:40.475Z,21.37
2022-08-05T03:41:12.804Z,21.39
2022-08-05T03:41:47.697Z,21.40
2022-08-05T03:42:27.087Z,21.39
2022-08-05T03:43:15.702Z,21.39
2022-08-05T03:44:08.853Z,21.36
2022-08-05T03:44:43.801Z,21.34
2022-08-05T03:45:21.971Z,21.39
2022-08-05T03:46:00.364Z,21.40
2022-08-05T03:46:32.744Z,21.40
2022-08-05T03:47:05.375Z,21.43
2022-08-05T03:47:41.995Z,21.42
2022-08-05T03:48:14.290Z,21.42
2022-08-05T03:48:56.689Z,21.40
2022-08-05T03:49:30.962Z,21.40
2022-08-05T03:50:21.256Z,21.36
2022-08-05T03:52:38.731Z,21.39
2022-08-05T03:52:48.779Z,21.34
2022-08-05T03:55:07.001Z,21.28
2022-08-05T03:55:51.689Z,21.31
2022-08-05T03:55:52.078Z,21.28
2022-08-05T03:56:10.299Z,21.27
2022-08-05T03:56:50.312Z,21.21
2022-08-05T03:57:41.844Z,21.22
2022-08-05T03:58:20.785Z,21.19
2022-08-05T03:59:06.627Z,21.18
2022-08-05T03:59:54.466Z,21.20
2022-08-05T04:00:30.025Z,21.19
2022-08-05T04:01:08.062Z,21.21
2022-08-05T04:01:51.030Z,21.20
2022-08-05T04:02:34.810Z,21.21
2022-08-05T04:03:15.053Z,21.20
2022-08-05T04:04:09.040Z,21.20
2022-08-05T04:04:44.895Z,21.24
2022-08-05T04:05:18.490Z,21.26
2022-08-05T04:05:53.745Z,21.28
2022-08-05T04:06:26.819Z,21.28
2022-08-05T04:07:01.941Z,21.30
2022-08-05T04:07:58.161Z,21.31
2022-08-05T04:08:36.269Z,21.27
2022-08-05T04:09:12.570Z,21.30
2022-08-05T04:09:53.676Z,21.33
2022-08-05T04:10:28.170Z,21.34
2022-08-05T04:11:07.534Z,21.38
2022-08-05T04:11:50.906Z,21.39
2022-08-05T04:12:27.690Z,21.41
2022-08-05T04:13:03.431Z,21.46
2022-08-05T04:13:50.872Z,21.47
2022-08-05T04:14:30.663Z,21.46
2022-08-05T04:15:03.852Z,21.47
2022-08-05T04:15:36.771Z,21.48
2022-08-05T04:16:16.010Z,21.51
2022-08-05T04:16:57.773Z,21.50
2022-08-05T04:17:55.658Z,21.51
2022-08-05T04:18:27.134Z,21.49
2022-08-05T04:19:00.070Z,21.51
2022-08-05T04:19:41.602Z,21.53
2022-08-05T04:20:24.881Z,21.53
2022-08-05T04:20:58.081Z,21.53
2022-08-05T04:22:08.392Z,21.55
2022-08-05T04:22:25.288Z,21.53
2022-08-05T04:22:58.773Z,21.55
2022-08-05T04:23:57.165Z,21.56
2022-08-05T04:24:27.623Z,21.52
2022-08-05T04:25:00.021Z,21.54
2022-08-05T04:25:56.759Z,21.55
2022-08-05T04:26:32.275Z,21.53
2022-08-05T04:27:05.181Z,21.52
2022-08-05T04:27:41.734Z,21.54
2022-08-05T04:28:17.228Z,21.55
2022-08-05T04:28:50.768Z,21.57
2022-08-05T04:29:26.464Z,21.59
2022-08-05T04:29:59.634Z,21.58
2022-08-05T04:30:36.160Z,21.59
2022-08-05T04:31:11.092Z,21.60
2022-08-05T04:31:48.359Z,21.60
2022-08-05T04:32:31.161Z,21.58
2022-08-05T04:33:08.116Z,21.55
2022-08-05T04:34:17.302Z,21.56
2022-08-05T04:34:38.512Z,21.53
2022-08-05T04:35:19.570Z,21.55
2022-08-05T04:36:16.417Z,21.55
2022-08-05T04:36:50.228Z,21.53
2022-08-05T04:38:01.373Z,21.56
2022-08-05T04:38:17.698Z,21.54
2022-08-05T04:38:52.853Z,21.56
2022-08-05T04:39:25.161Z,21.58
2022-08-05T04:39:59.950Z,21.60
2022-08-05T04:40:36.579Z,21.63
2022-08-05T04:41:09.492Z,21.63
2022-08-05T04:41:42.386Z,21.65
2022-08-05T04:42:19.141Z,21.67
2022-08-05T04:42:57.665Z,21.66
2022-08-05T04:43:32.500Z,21.67
2022-08-05T04:44:09.303Z,21.68
2022-08-05T04:44:42.255Z,21.69
2022-08-05T04:45:22.942Z,21.72
2022-08-05T04:46:05.006Z,21.69
2022-08-05T04:46:37.972Z,21.70
2022-08-05T04:47:20.419Z,21.67
2022-08-05T04:47:52.849Z,21.71
2022-08-05T04:48:27.862Z,21.74
2022-08-05T04:49:00.485Z,21.82
2022-08-05T04:49:38.782Z,21.80
2022-08-05T04:50:37.289Z,21.81
2022-08-05T04:51:12.766Z,21.85
2022-08-05T04:51:45.794Z,21.90
2022-08-05T04:52:19.537Z,21.95
2022-08-05T04:52:54.220Z,21.98
2022-08-05T04:53:26.351Z,22.00
2022-08-05T04:54:05.851Z,22.04
2022-08-05T04:54:40.616Z,22.06
2022-08-05T04:55:15.058Z,22.09
2022-08-05T04:56:11.903Z,22.10
2022-08-05T04:56:42.487Z,22.10
2022-08-05T04:57:15.970Z,22.15
2022-08-05T04:57:51.528Z,22.18
2022-08-05T04:58:28.621Z,22.21
2022-08-05T04:59:22.160Z,22.27
2022-08-05T04:59:54.430Z,22.25
2022-08-05T05:00:29.582Z,22.29
2022-08-05T05:01:02.396Z,22.29
2022-08-05T05:02:08.231Z,22.30
2022-08-05T05:02:36.679Z,22.26
2022-08-05T05:03:12.386Z,22.25
2022-08-05T05:03:50.911Z,22.24
2022-08-05T05:04:25.702Z,22.25
2022-08-05T05:05:03.105Z,22.26
2022-08-05T05:06:39.381Z,22.27
2022-08-05T05:06:40.671Z,22.24
2022-08-05T05:07:29.215Z,22.24
2022-08-05T05:08:04.113Z,22.23
2022-08-05T05:08:37.258Z,22.25
2022-08-05T05:09:18.478Z,22.26
2022-08-05T05:09:52.177Z,22.26
2022-08-05T05:10:26.199Z,22.29
2022-08-05T05:11:04.425Z,22.30
2022-08-05T05:11:42.162Z,22.31
2022-08-05T05:12:29.312Z,22.31
2022-08-05T05:13:04.141Z,22.34
2022-08-05T05:13:43.183Z,22.38
2022-08-05T05:14:18.503Z,22.37
2022-08-05T05:15:05.290Z,22.37
2022-08-05T05:15:59.141Z,22.37
2022-08-05T05:16:38.244Z,22.35
2022-08-05T05:17:14.310Z,22.37
2022-08-05T05:17:57.179Z,22.40
2022-08-05T05:18:33.917Z,22.38
2022-08-05T05:19:23.699Z,22.38
2022-08-05T05:19:59.992Z,22.36
2022-08-05T05:20:32.913Z,22.38
2022-08-05T05:21:07.920Z,22.40
2022-08-05T05:21:41.889Z,22.40
2022-08-05T05:22:24.669Z,22.41
2022-08-05T05:23:08.423Z,22.40
2022-08-05T05:24:02.981Z,22.41
2022-08-05T05:24:57.319Z,22.40
2022-08-05T05:25:40.489Z,22.32
2022-08-05T05:26:15.912Z,22.35
2022-08-05T05:26:48.225Z,22.41
2022-08-05T05:27:24.448Z,22.43
2022-08-05T05:28:17.003Z,22.43
2022-08-05T05:28:49.251Z,22.46
2022-08-05T05:29:21.434Z,22.50
2022-08-05T05:30:04.049Z,22.53
2022-08-05T05:30:37.519Z,22.53
2022-08-05T05:31:12.299Z,22.54
2022-08-05T05:31:46.248Z,22.55
2022-08-05T05:32:18.810Z,22.57
2022-08-05T05:33:00.815Z,22.59
2022-08-05T05:33:58.774Z,22.54
2022-08-05T05:34:30.539Z,22.51
2022-08-05T05:35:03.201Z,22.53
2022-08-05T05:35:37.877Z,22.51
2022-08-05T05:36:14.705Z,22.50
2022-08-05T05:36:48.210Z,22.47
2022-08-05T05:37:23.646Z,22.46
2022-08-05T05:38:13.451Z,22.42
2022-08-05T05:38:46.235Z,22.42
2022-08-05T05:39:19.405Z,22.41
2022-08-05T05:39:54.498Z,22.42
2022-08-05T05:40:27.537Z,22.42
2022-08-05T05:41:02.898Z,22.41
2022-08-05T05:41:40.416Z,22.41
2022-08-05T05:42:16.476Z,22.39
2022-08-05T05:42:53.469Z,22.37
2022-08-05T05:43:56.488Z,22.37
2022-08-05T05:44:36.812Z,22.32
2022-08-05T05:45:14.243Z,22.33
2022-08-05T05:45:49.051Z,22.38
2022-08-05T05:46:21.769Z,22.39
2022-08-05T05:46:54.105Z,22.41
2022-08-05T05:48:06.035Z,22.43
2022-08-05T05:48:27.368Z,22.39
2022-08-05T05:49:06.395Z,22.40
2022-08-05T05:49:45.197Z,22.41
2022-08-05T05:50:31.445Z,22.39
2022-08-05T05:51:15.669Z,22.39
2022-08-05T05:51:51.196Z,22.38
2022-08-05T05:52:29.985Z,22.41
2022-08-05T05:53:21.226Z,22.40
2022-08-05T05:53:58.604Z,22.39
2022-08-05T05:54:49.763Z,22.40
2022-08-05T05:55:51.655Z,22.38
2022-08-05T05:56:25.858Z,22.38
2022-08-05T05:57:13.859Z,22.39
2022-08-05T05:57:52.835Z,22.41
2022-08-05T05:58:30.286Z,22.43
2022-08-05T05:59:06.948Z,22.46
2022-08-05T05:59:40.191Z,22.48
2022-08-05T06:00:18.505Z,22.51
2022-08-05T06:00:50.981Z,22.52
2022-08-05T06:01:23.578Z,22.53
2022-08-05T06:01:58.326Z,22.57
2022-08-05T06:02:32.859Z,22.61
2022-08-05T06:03:40.063Z,22.65
2022-08-05T06:04:07.769Z,22.67
2022-08-05T06:04:40.068Z,22.71
2022-08-05T06:05:16.628Z,22.75
2022-08-05T06:05:54.256Z,22.77
2022-08-05T06:06:31.284Z,22.79
2022-08-05T06:07:08.371Z,22.80
2022-08-05T06:07:43.346Z,22.83
2022-08-05T06:08:36.153Z,22.83
2022-08-05T06:09:16.949Z,22.86
2022-08-05T06:10:04.356Z,22.86
2022-08-05T06:10:52.493Z,22.87
2022-08-05T06:11:29.048Z,22.87
2022-08-05T06:12:02.698Z,22.90
2022-08-05T06:12:36.101Z,22.93
2022-08-05T06:13:17.014Z,22.94
2022-08-05T06:13:50.458Z,22.97
2022-08-05T06:14:28.037Z,22.98
2022-08-05T06:15:04.286Z,23.00
2022-08-05T06:16:30.124Z,22.99
2022-08-05T06:16:36.804Z,22.97
2022-08-05T06:17:21.990Z,23.01
2022-08-05T06:17:57.551Z,23.02
2022-08-05T06:18:31.009Z,23.04
2022-08-05T06:19:07.206Z,23.09
2022-08-05T06:19:43.088Z,23.10
2022-08-05T06:20:28.596Z,23.16
2022-08-05T06:21:00.873Z,23.24
2022-08-05T06:21:37.458Z,23.29
2022-08-05T06:22:10.647Z,23.33
2022-08-05T06:22:42.955Z,23.38
2022-08-05T06:23:17.785Z,23.42
2022-08-05T06:23:49.952Z,23.43
2022-08-05T06:24:25.746Z,23.47
2022-08-05T06:25:25.028Z,23.49
2022-08-05T06:26:12.975Z,23.48
2022-08-05T06:26:52.128Z,23.50
2022-08-05T06:28:11.370Z,23.50
2022-08-05T06:28:21.406Z,23.50
2022-08-05T06:28:54.120Z,23.53
2022-08-05T06:29:49.520Z,23.53
2022-08-05T06:30:21.499Z,23.50
2022-08-05T06:30:53.935Z,23.51
2022-08-05T06:31:30.453Z,23.50
2022-08-05T06:32:05.044Z,23.48
2022-08-05T06:32:56.589Z,23.42
2022-08-05T06:33:33.311Z,23.41
2022-08-05T06:34:26.577Z,23.37
2022-08-05T06:35:00.072Z,23.37
2022-08-05T06:36:07.297Z,23.38
2022-08-05T06:36:53.482Z,23.41
2022-08-05T06:37:56.182Z,23.39
2022-08-05T06:38:35.899Z,23.42
2022-08-05T06:39:11.708Z,23.42
2022-08-05T06:39:45.214Z,23.45
2022-08-05T06:40:18.203Z,23.49
2022-08-05T06:40:56.211Z,23.52
2022-08-05T06:41:28.922Z,23.56
2022-08-05T06:42:07.268Z,23.59
2022-08-05T06:42:42.421Z,23.63
2022-08-05T06:43:57.925Z,23.66
2022-08-05T06:44:07.280Z,23.67
2022-08-05T06:44:42.201Z,23.69
2022-08-05T06:45:20.802Z,23.70
2022-08-05T06:46:06.575Z,23.71
2022-08-05T06:46:39.703Z,23.72
2022-08-05T06:47:30.021Z,23.72
2022-08-05T06:48:37.045Z,23.68
2022-08-05T06:49:04.632Z,23.66
2022-08-05T06:49:59.892Z,23.66
2022-08-05T06:50:36.974Z,23.64
2022-08-05T06:51:09.668Z,23.65
2022-08-05T06:51:42.409Z,23.67
2022-08-05T06:52:37.758Z,23.68
2022-08-05T06:53:19.597Z,23.68
2022-08-05T06:54:03.420Z,23.67
2022-08-05T06:54:35.962Z,23.70
2022-08-05T06:55:09.160Z,23.73
2022-08-05T06:55:44.694Z,23.73
2022-08-05T06:56:26.481Z,23.74
2022-08-05T06:57:56.579Z,23.74
2022-08-05T06:58:03.375Z,23.72
2022-08-05T06:58:48.621Z,23.69
2022-08-05T06:59:23.414Z,23.72
2022-08-05T06:59:58.290Z,23.72
2022-08-05T07:00:31.486Z,23.72
2022-08-05T07:01:07.701Z,23.72
2022-08-05T07:01:40.705Z,23.72
2022-08-05T07:02:14.828Z,23.72
2022-08-05T07:02:53.445Z,23.72
2022-08-05T07:03:28.124Z,23.71
2022-08-05T07:04:07.575Z,23.70
2022-08-05T07:04:42.311Z,23.68
2022-08-05T07:05:18.633Z,23.67
2022-08-05T07:05:54.384Z,23.63
2022-08-05T07:06:29.527Z,23.62
2022-08-05T07:07:01.729Z,23.63
2022-08-05T07:07:43.919Z,23.66
2022-08-05T07:08:19.500Z,23.64
2022-08-05T07:08:54.983Z,23.66
2022-08-05T07:09:32.346Z,23.67
2022-08-05T07:10:14.817Z,23.67
2022-08-05T07:10:53.279Z,23.66
2022-08-05T07:11:28.069Z,23.65
2022-08-05T07:12:02.953Z,23.70
2022-08-05T07:12:51.135Z,23.68
2022-08-05T07:13:56.806Z,23.67
2022-08-05T07:14:46.038Z,23.64
2022-08-05T07:15:34.399Z,23.64
2022-08-05T07:17:58.777Z,23.58
2022-08-05T07:18:00.755Z,23.59
2022-08-05T07:18:29.061Z,23.58
2022-08-05T07:19:02.490Z,23.61
2022-08-05T07:20:23.010Z,23.63
2022-08-05T07:20:37.004Z,23.62
2022-08-05T07:21:13.408Z,23.63
2022-08-05T07:21:59.855Z,23.64
2022-08-05T07:22:36.016Z,23.68
2022-08-05T07:23:08.192Z,23.69
2022-08-05T07:23:49.857Z,23.70
2022-08-05T07:24:28.768Z,23.69
2022-08-05T07:25:22.064Z,23.71
2022-08-05T07:25:57.224Z,23.69
2022-08-05T07:26:29.525Z,23.69
2022-08-05T07:27:03.569Z,23.69
2022-08-05T07:27:58.740Z,23.68
2022-08-05T07:28:34.922Z,23.67
2022-08-05T07:29:10.209Z,23.69
2022-08-05T07:30:25.542Z,23.72
2022-08-05T07:30:38.693Z,23.69
2022-08-05T07:31:14.323Z,23.73
2022-08-05T07:31:54.558Z,23.75
2022-08-05T07:32:30.140Z,23.76
2022-08-05T07:33:08.854Z,23.77
2022-08-05T07:33:44.516Z,23.78
2022-08-05T07:34:16.878Z,23.79
2022-08-05T07:34:57.927Z,23.78
2022-08-05T07:36:01.877Z,23.79
2022-08-05T07:36:28.546Z,23.74
2022-08-05T07:37:04.446Z,23.76
2022-08-05T07:37:37.517Z,23.77
2022-08-05T07:38:12.271Z,23.77
2022-08-05T07:39:00.255Z,23.76
2022-08-05T07:40:04.339Z,23.77
2022-08-05T07:40:32.282Z,23.77
2022-08-05T07:42:06.730Z,23.77
2022-08-05T07:42:08.167Z,23.74
2022-08-05T07:42:44.046Z,23.76
2022-08-05T07:43:20.902Z,23.80
2022-08-05T07:43:56.208Z,23.83
2022-08-05T07:44:31.543Z,23.84
2022-08-05T07:45:09.318Z,23.86
2022-08-05T07:45:57.040Z,23.87
2022-08-05T07:46:31.935Z,23.89
2022-08-05T07:47:10.174Z,23.90
2022-08-05T07:47:47.293Z,23.93
2022-08-05T07:49:01.398Z,23.96
2022-08-05T07:49:18.210Z,23.97
2022-08-05T07:49:54.320Z,23.99
2022-08-05T07:50:32.369Z,24.00
2022-08-05T07:51:23.450Z,24.01
2022-08-05T07:52:03.419Z,23.98
2022-08-05T07:52:41.649Z,24.02
2022-08-05T07:53:16.606Z,24.03
2022-08-05T07:53:50.389Z,24.06
2022-08-05T07:54:31.446Z,24.12
2022-08-05T07:55:44.044Z,24.16
2022-08-05T07:56:06.577Z,24.20
2022-08-05T07:57:01.451Z,24.24
2022-08-05T07:57:55.159Z,24.28
2022-08-05T07:58:57.516Z,24.32
2022-08-05T07:59:38.691Z,24.37
2022-08-05T08:00:17.258Z,24.40
2022-08-05T08:00:50.292Z,24.44
2022-08-05T08:01:25.372Z,24.47
2022-08-05T08:02:05.194Z,24.45
2022-08-05T08:03:13.960Z,24.47
2022-08-05T08:03:44.622Z,24.44
2022-08-05T08:04:17.291Z,24.43
2022-08-05T08:05:09.727Z,24.40
2022-08-05T08:05:49.635Z,24.40
2022-08-05T08:06:28.199Z,24.37
2022-08-05T08:07:05.479Z,24.36
2022-08-05T08:08:00.201Z,24.34
2022-08-05T08:08:34.087Z,24.31
2022-08-05T08:09:06.425Z,24.31
2022-08-05T08:09:38.982Z,24.30
2022-08-05T08:10:13.899Z,24.30
2022-08-05T08:10:55.683Z,24.27
2022-08-05T08:11:53.572Z,24.25
2022-08-05T08:12:37.319Z,24.24
2022-08-05T08:13:22.026Z,24.20
2022-08-05T08:14:01.577Z,24.19
2022-08-05T08:14:36.390Z,24.22
2022-08-05T08:15:15.623Z,24.22
2022-08-05T08:16:35.232Z,24.19
2022-08-05T08:16:51.037Z,24.15
2022-08-05T08:17:27.877Z,24.09
2022-08-05T08:18:05.942Z,24.07
2022-08-05T08:18:42.999Z,24.08
2022-08-05T08:20:10.743Z,24.09
2022-08-05T08:20:43.455Z,24.13
2022-08-05T08:21:15.731Z,24.16
2022-08-05T08:21:53.307Z,24.22
2022-08-05T08:22:27.111Z,24.25
2022-08-05T08:23:03.104Z,24.28
2022-08-05T08:24:02.488Z,24.30
2022-08-05T08:24:51.660Z,24.32
2022-08-05T08:26:00.808Z,24.34
2022-08-05T08:26:29.546Z,24.38
2022-08-05T08:27:06.862Z,24.40
2022-08-05T08:27:44.716Z,24.46
2022-08-05T08:28:35.655Z,24.50
2022-08-05T08:29:45.357Z,24.53
2022-08-05T08:30:19.103Z,24.58
2022-08-05T08:30:56.658Z,24.60
2022-08-05T08:31:32.989Z,24.63
2022-08-05T08:32:05.223Z,24.63
2022-08-05T08:32:43.575Z,24.65
2022-08-05T08:33:19.110Z,24.65
2022-08-05T08:33:53.193Z,24.65
2022-08-05T08:34:30.367Z,24.65
2022-08-05T08:35:07.500Z,24.63
2022-08-05T08:35:52.674Z,24.66
2022-08-05T08:36:48.856Z,24.68
2022-08-05T08:37:27.831Z,24.75
2022-08-05T08:38:02.988Z,24.81
2022-08-05T08:38:37.754Z,24.86
2022-08-05T08:39:15.013Z,24.92
2022-08-05T08:39:50.674Z,24.98
2022-08-05T08:40:23.039Z,25.03
2022-08-05T08:40:56.719Z,25.08
2022-08-05T08:41:50.646Z,25.13
2022-08-05T08:42:34.332Z,25.16
2022-08-05T08:45:18.096Z,25.22
2022-08-05T08:45:19.347Z,25.21